Time;durP1;ratioP1;P1;durP2;ratioP2;P2;SDS_P1;SDS_P2;PMS_P1;PMS_P2;Temp;Humidity;BMP_temperature;BMP_pressure;BME280_temperature;BME280_humidity;BME280_pressure;Samples;Min_cycle;Max_cycle;Signal;HPM_P1;HPM_P2
2022/12/23 00:01:43;;;;;;;64.70;26.80;;;;;;;-2.66;100.00;100731.20;107776;1267;73076;-80
2022/12/23 00:04:12;;;;;;;70.00;25.70;;;;;;;-2.75;100.00;100727.42;107972;1270;71350;-80
2022/12/23 00:06:41;;;;;;;68.60;25.20;;;;;;;-2.78;100.00;100726.13;107845;1263;69918;-80
2022/12/23 00:09:09;;;;;;;73.00;27.20;;;;;;;-2.82;100.00;100719.88;107736;1261;73616;-80
2022/12/23 00:15:04;;;;;;;67.10;24.80;;;;;;;-2.87;100.00;100716.06;107819;1263;61230;-79
2022/12/23 00:17:14;;;;;;;69.90;25.30;;;;;;;-2.76;100.00;100713.66;107852;1264;71127;-77
2022/12/23 00:19:50;;;;;;;70.60;27.70;;;;;;;-2.84;100.00;100715.50;107980;1258;69449;-78
2022/12/23 00:23:03;;;;;;;73.60;27.50;;;;;;;-2.85;100.00;100719.94;107834;1263;67891;-78
2022/12/23 00:25:09;;;;;;;79.70;26.30;;;;;;;-2.81;100.00;100726.00;107912;1258;73876;-77
2022/12/23 00:27:38;;;;;;;68.30;24.30;;;;;;;-2.81;100.00;100737.41;107749;1261;62337;-80
2022/12/23 00:30:09;;;;;;;72.60;25.90;;;;;;;-2.88;100.00;100738.05;107756;1266;59284;-77
2022/12/23 00:32:38;;;;;;;72.60;27.30;;;;;;;-2.88;100.00;100724.61;107889;1259;70684;-79
2022/12/23 00:35:07;;;;;;;75.30;26.70;;;;;;;-2.84;100.00;100729.11;108003;1253;72233;-79
2022/12/23 00:37:36;;;;;;;68.70;25.90;;;;;;;-2.81;100.00;100737.94;107885;1263;68201;-77
2022/12/23 00:42:55;;;;;;;68.80;26.40;;;;;;;-2.91;100.00;100736.73;107870;1263;61854;-79
2022/12/23 00:45:23;;;;;;;78.60;27.50;;;;;;;-2.95;100.00;100733.39;107844;1267;61287;-79
2022/12/23 00:50:39;;;;;;;78.40;26.70;;;;;;;-3.00;100.00;100732.29;107948;1266;70194;-79
2022/12/23 00:53:08;;;;;;;68.60;25.70;;;;;;;-3.05;100.00;100733.73;107802;1261;68615;-80
2022/12/23 00:55:37;;;;;;;86.30;28.40;;;;;;;-3.08;100.00;100736.16;107845;1259;73759;-79
2022/12/23 00:58:05;;;;;;;83.30;26.50;;;;;;;-3.04;100.00;100738.47;107836;1271;62187;-79
2022/12/23 01:06:09;;;;;;;81.60;28.40;;;;;;;-3.00;100.00;100728.20;107935;1261;72590;-81
2022/12/23 01:08:37;;;;;;;79.10;27.70;;;;;;;-3.05;100.00;100728.45;107752;1261;69960;-85
2022/12/23 01:11:10;;;;;;;79.00;27.50;;;;;;;-3.00;100.00;100727.68;107792;1261;71541;-85
2022/12/23 01:13:39;;;;;;;82.40;27.60;;;;;;;-2.95;100.00;100728.96;107839;1255;59705;-81
2022/12/23 01:16:10;;;;;;;76.60;27.30;;;;;;;-2.88;100.00;100725.28;107861;1266;59569;-78
2022/12/23 01:18:44;;;;;;;82.70;27.60;;;;;;;-2.83;100.00;100727.77;107652;1264;73497;-80
2022/12/23 01:21:13;;;;;;;85.20;26.90;;;;;;;-2.77;100.00;100726.45;107908;1255;70688;-79
2022/12/23 01:23:42;;;;;;;75.40;27.70;;;;;;;-2.79;100.00;100724.10;107865;1269;67694;-80
2022/12/23 01:26:11;;;;;;;81.00;26.70;;;;;;;-2.82;100.00;100718.86;107864;1261;72980;-80
2022/12/23 01:28:40;;;;;;;76.10;27.50;;;;;;;-2.82;100.00;100717.33;107668;1267;59404;-80
2022/12/23 01:31:09;;;;;;;71.50;26.10;;;;;;;-2.77;100.00;100705.98;107865;1267;60563;-80
2022/12/23 01:33:38;;;;;;;82.90;29.30;;;;;;;-2.78;100.00;100706.00;107782;1271;71241;-80
2022/12/23 01:36:09;;;;;;;79.60;26.70;;;;;;;-2.80;100.00;100707.41;108006;1259;70941;-81
2022/12/23 01:38:38;;;;;;;81.60;27.10;;;;;;;-2.72;100.00;100702.48;107770;1271;70218;-80
2022/12/23 01:41:06;;;;;;;77.30;27.60;;;;;;;-2.77;100.00;100701.56;107775;1263;73595;-81
2022/12/23 01:43:49;;;;;;;82.60;28.40;;;;;;;-2.70;100.00;100700.58;107804;1267;60178;-80
2022/12/23 01:46:19;;;;;;;78.30;28.30;;;;;;;-2.66;100.00;100703.41;107775;1267;59573;-80
2022/12/23 01:48:51;;;;;;;76.70;27.60;;;;;;;-2.70;100.00;100705.20;107838;1267;73478;-80
2022/12/23 01:51:28;;;;;;;71.90;25.30;;;;;;;-2.72;100.00;100706.23;107787;1268;71660;-80
2022/12/23 01:54:00;;;;;;;83.80;29.60;;;;;;;-2.73;100.00;100701.98;107901;1255;69644;-80
2022/12/23 01:56:38;;;;;;;72.80;27.40;;;;;;;-2.79;100.00;100694.62;107847;1267;71133;-81
2022/12/23 02:03:41;;;;;;;72.20;25.60;;;;;;;-2.86;100.00;100700.52;107612;1271;60395;-81
2022/12/23 02:04:52;;;;;;;73.50;25.90;;;;;;;-2.81;100.00;100705.04;107835;1263;73532;-78
2022/12/23 02:10:09;;;;;;;70.50;25.60;;;;;;;-2.79;100.00;100693.60;107828;1263;68561;-81
2022/12/23 02:12:56;;;;;;;71.00;26.20;;;;;;;-2.88;100.00;100690.17;107689;1261;73878;-82
2022/12/23 02:19:13;;;;;;;77.40;26.20;;;;;;;-2.88;100.00;100693.07;107856;1266;58485;-80
2022/12/23 02:22:33;;;;;;;71.90;27.80;;;;;;;-2.98;100.00;100694.92;107807;1259;72422;-80
2022/12/23 02:25:29;;;;;;;76.80;26.20;;;;;;;-3.02;100.00;100691.42;107875;1267;72397;-80
2022/12/23 02:28:22;;;;;;;63.40;23.60;;;;;;;-2.99;100.00;100687.78;107784;1264;67649;-80
2022/12/23 02:31:37;;;;;;;73.30;25.70;;;;;;;-3.00;100.00;100692.23;107728;1264;73808;-80
2022/12/23 02:34:15;;;;;;;72.70;26.80;;;;;;;-3.01;100.00;100686.29;107420;1263;60887;-80
2022/12/23 02:37:36;;;;;;;69.50;24.60;;;;;;;-3.05;100.00;100684.66;107790;1263;60851;-79
2022/12/23 02:40:16;;;;;;;68.50;23.30;;;;;;;-3.02;100.00;100676.60;107815;1263;73875;-79
2022/12/23 02:43:02;;;;;;;73.60;25.10;;;;;;;-3.02;100.00;100682.73;107936;1273;72399;-78
2022/12/23 02:45:53;;;;;;;70.20;25.80;;;;;;;-3.04;100.00;100688.39;107692;1272;70237;-78
2022/12/23 02:48:45;;;;;;;69.10;25.50;;;;;;;-3.04;100.00;100691.64;107711;1265;70582;-78
2022/12/23 02:51:15;;;;;;;73.50;26.10;;;;;;;-3.00;100.00;100691.55;107763;1266;60409;-78
2022/12/23 02:53:51;;;;;;;81.90;26.00;;;;;;;-3.01;100.00;100698.21;107813;1264;59457;-77
2022/12/23 02:56:24;;;;;;;66.10;24.50;;;;;;;-2.95;100.00;100698.64;107703;1264;70756;-78
2022/12/23 02:59:03;;;;;;;77.30;27.90;;;;;;;-2.83;100.00;100691.27;107907;1264;70241;-78
2022/12/23 03:01:33;;;;;;;70.20;23.80;;;;;;;-2.90;100.00;100685.59;107720;1266;70382;-77
2022/12/23 03:04:02;;;;;;;73.40;25.80;;;;;;;-2.92;100.00;100676.77;107649;1270;72215;-78
2022/12/23 03:06:39;;;;;;;72.90;25.30;;;;;;;-3.01;100.00;100671.64;107947;1261;62684;-79
2022/12/23 03:09:13;;;;;;;70.90;24.80;;;;;;;-2.88;100.00;100674.65;107736;1267;59826;-79
2022/12/23 03:12:16;;;;;;;69.40;26.60;;;;;;;-2.91;100.00;100673.19;107739;1270;71592;-79
2022/12/23 03:15:10;;;;;;;69.50;25.90;;;;;;;-2.94;100.00;100669.83;107935;1261;72097;-82
2022/12/23 03:18:19;;;;;;;71.90;24.10;;;;;;;-2.88;100.00;100671.94;107758;1272;68915;-80
2022/12/23 03:21:04;;;;;;;76.70;24.80;;;;;;;-2.82;100.00;100669.44;107787;1265;73366;-79
2022/12/23 03:23:45;;;;;;;71.50;25.50;;;;;;;-2.80;100.00;100673.83;107723;1273;62439;-81
2022/12/23 03:26:43;;;;;;;65.40;24.30;;;;;;;-2.90;100.00;100674.69;107756;1270;58984;-77
2022/12/23 03:29:45;;;;;;;64.20;22.90;;;;;;;-2.87;100.00;100676.01;107738;1270;72184;-78
2022/12/23 03:32:16;;;;;;;68.20;24.50;;;;;;;-2.97;100.00;100667.46;107917;1264;69368;-80
2022/12/23 03:34:50;;;;;;;66.60;24.80;;;;;;;-2.90;100.00;100668.90;107740;1266;70365;-79
2022/12/23 03:37:21;;;;;;;72.10;24.80;;;;;;;-2.86;100.00;100664.04;107720;1262;72167;-78
2022/12/23 03:40:27;;;;;;;58.90;21.50;;;;;;;-2.82;100.00;100662.45;107700;1267;59792;-81
2022/12/23 03:43:02;;;;;;;66.20;24.30;;;;;;;-2.82;100.00;100666.20;107632;1267;60494;-81
2022/12/23 03:45:38;;;;;;;71.10;25.50;;;;;;;-2.90;100.00;100666.16;107729;1263;74108;-80
2022/12/23 03:48:37;;;;;;;65.20;22.40;;;;;;;-2.82;100.00;100671.14;107810;1264;73116;-78
2022/12/23 03:51:28;;;;;;;68.70;23.20;;;;;;;-2.83;100.00;100670.81;107806;1267;69654;-77
2022/12/23 03:54:14;;;;;;;66.80;22.90;;;;;;;-2.85;100.00;100668.63;107612;1264;74387;-78
2022/12/23 03:56:52;;;;;;;61.60;23.80;;;;;;;-2.86;100.00;100662.68;107602;1266;60682;-77
2022/12/23 03:59:33;;;;;;;70.80;25.90;;;;;;;-2.86;100.00;100661.14;107666;1263;61125;-76
2022/12/23 04:02:17;;;;;;;61.60;23.80;;;;;;;-2.82;100.00;100661.41;107584;1270;73334;-77
2022/12/23 04:05:13;;;;;;;68.10;26.60;;;;;;;-2.84;100.00;100665.70;107894;1261;71746;-77
2022/12/23 04:08:11;;;;;;;72.10;25.50;;;;;;;-2.77;100.00;100666.79;107785;1264;70354;-77
2022/12/23 04:10:40;;;;;;;68.10;24.90;;;;;;;-2.76;100.00;100668.29;107682;1267;74364;-78
2022/12/23 04:13:09;;;;;;;65.50;25.20;;;;;;;-2.74;100.00;100669.45;107598;1269;59380;-78
2022/12/23 04:15:40;;;;;;;70.30;25.00;;;;;;;-2.77;100.00;100672.23;107665;1266;60684;-77
2022/12/23 04:18:10;;;;;;;66.40;23.80;;;;;;;-2.73;100.00;100673.02;107591;1267;73960;-77
2022/12/23 04:20:39;;;;;;;65.60;23.50;;;;;;;-2.79;100.00;100672.27;107874;1265;72474;-76
2022/12/23 04:23:07;;;;;;;57.80;20.90;;;;;;;-2.81;100.00;100684.59;107745;1267;70313;-77
2022/12/23 04:25:36;;;;;;;71.90;24.00;;;;;;;-2.80;100.00;100687.30;107757;1267;72696;-77
2022/12/23 04:28:05;;;;;;;71.20;23.70;;;;;;;-2.82;100.00;100678.97;107861;1261;60471;-76
2022/12/23 04:30:34;;;;;;;65.80;24.00;;;;;;;-2.84;100.00;100677.99;107759;1267;59850;-77
2022/12/23 04:33:03;;;;;;;61.70;22.10;;;;;;;-2.86;100.00;100678.02;107756;1263;73906;-72
2022/12/23 04:35:31;;;;;;;65.70;23.90;;;;;;;-2.81;100.00;100666.86;107887;1261;71571;-79
2022/12/23 04:38:00;;;;;;;68.20;23.00;;;;;;;-2.80;100.00;100664.45;107765;1273;67659;-76
2022/12/23 04:40:29;;;;;;;70.20;24.00;;;;;;;-2.79;100.00;100673.13;107729;1267;71922;-78
2022/12/23 04:42:58;;;;;;;72.70;24.50;;;;;;;-2.83;100.00;100675.24;107816;1264;61947;-78
2022/12/23 04:45:27;;;;;;;73.80;25.90;;;;;;;-2.77;100.00;100679.75;107688;1261;61564;-79
2022/12/23 04:47:56;;;;;;;63.10;22.50;;;;;;;-2.73;100.00;100685.63;107704;1263;72513;-83
2022/12/23 04:50:25;;;;;;;68.80;24.00;;;;;;;-2.65;100.00;100681.06;107906;1261;70570;-81
2022/12/23 04:52:54;;;;;;;63.90;24.60;;;;;;;-2.58;100.00;100678.37;107751;1264;70433;-82
2022/12/23 04:55:22;;;;;;;59.50;23.60;;;;;;;-2.49;100.00;100678.19;107735;1270;73387;-81
2022/12/23 04:57:51;;;;;;;65.50;25.50;;;;;;;-2.54;100.00;100675.21;107772;1261;60640;-82
2022/12/23 05:00:21;;;;;;;68.00;24.50;;;;;;;-2.41;100.00;100679.08;107697;1270;59485;-83
2022/12/23 05:02:49;;;;;;;70.40;25.00;;;;;;;-2.40;100.00;100679.05;107773;1259;73285;-82
2022/12/23 05:05:18;;;;;;;73.70;25.30;;;;;;;-2.34;100.00;100682.16;107911;1264;72313;-81
2022/12/23 05:07:50;;;;;;;67.50;24.80;;;;;;;-2.45;100.00;100683.93;107776;1272;67674;-81
2022/12/23 05:10:19;;;;;;;70.10;24.30;;;;;;;-2.43;100.00;100685.76;107777;1265;71864;-81
2022/12/23 05:12:48;;;;;;;68.70;25.00;;;;;;;-2.47;100.00;100688.90;107826;1261;59454;-80
2022/12/23 05:15:17;;;;;;;72.30;25.30;;;;;;;-2.45;100.00;100689.20;107800;1260;60294;-81
2022/12/23 05:17:45;;;;;;;65.40;21.90;;;;;;;-2.48;100.00;100693.01;107774;1267;73840;-82
2022/12/23 05:20:14;;;;;;;67.80;24.00;;;;;;;-2.51;100.00;100700.73;107833;1255;71579;-83
2022/12/23 05:22:43;;;;;;;73.40;26.40;;;;;;;-2.53;100.00;100703.34;107688;1260;71054;-82
2022/12/23 05:25:12;;;;;;;70.30;26.60;;;;;;;-2.62;100.00;100701.64;107684;1264;71058;-80
2022/12/23 05:27:41;;;;;;;78.60;25.70;;;;;;;-2.54;100.00;100699.08;107718;1259;61400;-81
2022/12/23 05:30:10;;;;;;;68.50;24.10;;;;;;;-2.47;100.00;100704.08;107672;1262;61468;-82
2022/12/23 05:32:39;;;;;;;68.30;25.50;;;;;;;-2.39;100.00;100710.08;107605;1261;71971;-81
2022/12/23 05:35:09;;;;;;;64.90;24.30;;;;;;;-2.35;100.00;100709.15;107816;1258;69500;-79
2022/12/23 05:37:38;;;;;;;62.20;23.50;;;;;;;-2.37;100.00;100711.22;107725;1264;70421;-79
2022/12/23 05:40:10;;;;;;;63.90;23.20;;;;;;;-2.40;100.00;100716.56;107811;1270;74295;-76
2022/12/23 05:42:41;;;;;;;65.80;24.90;;;;;;;-2.44;100.00;100724.14;107671;1270;61647;-79
2022/12/23 05:45:10;;;;;;;67.10;25.60;;;;;;;-2.49;100.00;100725.10;107725;1264;59956;-78
2022/12/23 05:47:38;;;;;;;73.90;28.20;;;;;;;-2.46;100.00;100728.11;107882;1259;74781;-79
2022/12/23 05:50:08;;;;;;;70.90;26.20;;;;;;;-2.45;100.00;100728.42;107975;1265;70061;-79
2022/12/23 05:52:38;;;;;;;75.20;23.60;;;;;;;-2.45;100.00;100731.99;107639;1263;68334;-80
2022/12/23 05:55:08;;;;;;;72.20;27.20;;;;;;;-2.43;100.00;100725.99;107702;1270;72963;-73
2022/12/23 05:57:36;;;;;;;64.90;25.00;;;;;;;-2.51;100.00;100732.81;107860;1267;61411;-80
2022/12/23 06:00:06;;;;;;;71.00;25.60;;;;;;;-2.55;100.00;100740.73;107805;1264;59869;-80
2022/12/23 06:02:40;;;;;;;72.10;25.60;;;;;;;-2.53;100.00;100739.50;107867;1263;70958;-80
2022/12/23 06:05:10;;;;;;;69.10;24.80;;;;;;;-2.53;100.00;100740.85;107909;1263;70337;-80
2022/12/23 06:07:39;;;;;;;66.30;24.60;;;;;;;-2.52;100.00;100736.39;107824;1262;68599;-84
2022/12/23 06:10:10;;;;;;;69.20;28.50;;;;;;;-2.47;100.00;100740.07;107891;1266;71847;-72
2022/12/23 06:12:38;;;;;;;83.90;28.00;;;;;;;-2.39;100.00;100745.71;107691;1267;61994;-83
2022/12/23 06:15:08;;;;;;;84.70;30.20;;;;;;;-2.43;100.00;100753.98;107729;1267;59866;-74
2022/12/23 06:17:37;;;;;;;67.00;25.30;;;;;;;-2.42;100.00;100751.73;107746;1266;71507;-76
2022/12/23 06:20:06;;;;;;;64.80;25.10;;;;;;;-2.39;100.00;100754.58;107925;1261;71333;-83
2022/12/23 06:22:35;;;;;;;71.60;25.40;;;;;;;-2.35;100.00;100761.00;107705;1262;69487;-86
2022/12/23 06:25:05;;;;;;;69.90;25.40;;;;;;;-2.33;100.00;100767.61;107753;1266;70974;-81
2022/12/23 06:27:34;;;;;;;71.50;26.60;;;;;;;-2.26;100.00;100769.03;107796;1270;62383;-85
2022/12/23 06:30:03;;;;;;;74.40;29.40;;;;;;;-2.29;100.00;100767.88;107749;1263;60601;-83
2022/12/23 06:32:32;;;;;;;66.70;25.40;;;;;;;-2.32;100.00;100767.61;107831;1267;70565;-83
2022/12/23 06:35:07;;;;;;;70.30;25.10;;;;;;;-2.26;100.00;100760.16;107961;1258;70353;-80
2022/12/23 06:37:36;;;;;;;68.20;26.00;;;;;;;-2.24;100.00;100756.02;107752;1267;68291;-80
2022/12/23 06:40:05;;;;;;;72.30;25.80;;;;;;;-2.28;100.00;100757.13;107816;1264;73766;-80
2022/12/23 06:42:34;;;;;;;72.10;29.30;;;;;;;-2.27;100.00;100761.20;107811;1264;62363;-79
2022/12/23 06:45:03;;;;;;;82.30;28.90;;;;;;;-2.32;100.00;100758.89;107786;1267;58807;-79
2022/12/23 06:47:32;;;;;;;73.40;28.50;;;;;;;-2.29;100.00;100764.30;107821;1261;71594;-77
2022/12/23 06:50:01;;;;;;;71.70;27.00;;;;;;;-2.23;100.00;100772.21;107945;1260;70186;-81
2022/12/23 06:52:30;;;;;;;68.40;27.10;;;;;;;-2.25;100.00;100766.79;107829;1265;67631;-83
2022/12/23 06:54:59;;;;;;;71.80;25.50;;;;;;;-2.29;100.00;100770.95;107942;1261;74545;-82
2022/12/23 06:57:27;;;;;;;72.30;27.70;;;;;;;-2.20;100.00;100769.93;107791;1266;62027;-83
2022/12/23 06:59:56;;;;;;;66.30;25.60;;;;;;;-2.18;100.00;100762.89;107738;1256;59375;-81
2022/12/23 07:02:25;;;;;;;70.30;23.50;;;;;;;-2.24;100.00;100762.85;107763;1266;70449;-81
2022/12/23 07:04:54;;;;;;;70.00;25.50;;;;;;;-2.14;100.00;100766.73;107953;1261;71850;-81
2022/12/23 07:07:23;;;;;;;73.20;28.00;;;;;;;-2.08;100.00;100764.92;107766;1263;70221;-84
2022/12/23 07:09:51;;;;;;;73.50;28.60;;;;;;;-1.91;100.00;100765.42;107760;1263;73955;-82
2022/12/23 07:12:20;;;;;;;73.10;28.00;;;;;;;-1.92;100.00;100766.33;107771;1263;60731;-81
2022/12/23 07:14:49;;;;;;;76.00;26.10;;;;;;;-1.76;100.00;100762.08;107773;1273;59620;-80
2022/12/23 07:17:18;;;;;;;70.20;26.60;;;;;;;-1.73;100.00;100766.61;107867;1259;72063;-83
2022/12/23 07:19:47;;;;;;;107.20;37.80;;;;;;;-1.73;100.00;100765.06;107956;1270;72501;-79
2022/12/23 07:22:16;;;;;;;70.30;26.80;;;;;;;-1.64;100.00;100768.28;107837;1264;68652;-81
2022/12/23 07:24:45;;;;;;;73.10;28.70;;;;;;;-1.61;100.00;100770.95;107782;1263;70155;-84
2022/12/23 07:27:14;;;;;;;75.90;29.80;;;;;;;-1.52;100.00;100767.71;107730;1267;62013;-77
2022/12/23 07:30:22;;;;;;;81.90;31.10;;;;;;;-1.46;100.00;100767.58;103150;1299;601213;-76
2022/12/23 07:32:52;;;;;;;72.60;28.80;;;;;;;-1.47;100.00;100759.05;104844;1278;60113;-79
2022/12/23 07:35:21;;;;;;;78.50;28.50;;;;;;;-1.33;100.00;100763.88;105356;1281;61599;-79
2022/12/23 07:37:55;;;;;;;69.20;28.10;;;;;;;-1.17;100.00;100760.08;105485;1270;69530;-77
2022/12/23 07:40:25;;;;;;;75.20;28.20;;;;;;;-1.10;100.00;100760.77;105281;1270;71555;-74
2022/12/23 07:42:57;;;;;;;77.50;29.70;;;;;;;-1.19;99.97;100753.31;104189;1271;1603960;-74
2022/12/23 07:45:28;;;;;;;65.90;25.40;;;;;;;-1.13;99.92;100754.67;105164;1268;71624;-72
2022/12/23 07:47:59;;;;;;;64.30;27.90;;;;;;;-1.10;99.79;100761.61;105302;1279;60306;-80
2022/12/23 07:50:28;;;;;;;67.50;25.10;;;;;;;-1.10;99.40;100758.05;105267;1278;59592;-88
2022/12/23 07:52:57;;;;;;;83.50;30.80;;;;;;;-1.11;99.88;100760.80;105198;1275;68102;-79
2022/12/23 07:55:26;;;;;;;64.00;22.10;;;;;;;-1.18;99.62;100767.98;105428;1267;69401;-76
2022/12/23 07:57:55;;;;;;;78.70;27.30;;;;;;;-1.17;99.84;100765.02;105265;1276;70513;-75
2022/12/23 08:00:24;;;;;;;74.90;27.40;;;;;;;-0.95;99.84;100767.79;106195;1267;73809;-74
2022/12/23 08:02:53;;;;;;;74.00;27.70;;;;;;;-0.85;99.13;100761.38;105248;1269;61839;-77
2022/12/23 08:05:22;;;;;;;68.40;26.70;;;;;;;-0.80;98.94;100759.36;105469;1265;59043;-76
2022/12/23 08:07:51;;;;;;;70.10;27.60;;;;;;;-0.69;98.76;100762.33;105429;1276;69988;-77
2022/12/23 08:10:20;;;;;;;69.50;28.70;;;;;;;-0.54;97.92;100761.61;105490;1268;71100;-79
2022/12/23 08:12:49;;;;;;;73.60;28.10;;;;;;;-0.42;97.43;100762.50;105465;1266;70689;-77
2022/12/23 08:15:18;;;;;;;86.30;31.50;;;;;;;-0.21;96.45;100759.90;105294;1264;74383;-76
2022/12/23 08:17:46;;;;;;;74.90;29.60;;;;;;;-0.30;95.85;100758.75;105390;1269;59751;-75
2022/12/23 08:20:15;;;;;;;82.40;29.50;;;;;;;-0.24;95.63;100756.02;105418;1267;60131;-81
2022/12/23 08:22:44;;;;;;;85.60;30.20;;;;;;;-0.16;95.23;100753.77;105388;1270;70127;-73
2022/12/23 08:25:13;;;;;;;76.60;29.30;;;;;;;-0.11;95.04;100758.08;105271;1269;70377;-81
2022/12/23 08:27:42;;;;;;;73.10;28.10;;;;;;;0.06;95.01;100758.81;105094;1264;68606;-76
2022/12/23 08:30:12;;;;;;;70.80;28.00;;;;;;;0.12;93.72;100763.08;105135;1269;73443;-75
2022/12/23 08:32:41;;;;;;;73.30;27.70;;;;;;;0.22;92.73;100759.17;105128;1272;59127;-76
2022/12/23 08:35:10;;;;;;;75.50;29.20;;;;;;;0.15;92.96;100766.75;105038;1275;59414;-78
2022/12/23 08:37:39;;;;;;;87.90;33.50;;;;;;;0.26;93.85;100764.73;105027;1269;71122;-77
2022/12/23 08:40:09;;;;;;;72.10;27.00;;;;;;;0.26;93.54;100761.98;105035;1273;70190;-78
2022/12/23 08:42:38;;;;;;;78.10;27.50;;;;;;;0.39;93.24;100764.36;105143;1277;68732;-77
2022/12/23 08:45:07;;;;;;;74.00;28.40;;;;;;;0.31;93.17;100764.08;105197;1271;73938;-79
2022/12/23 08:47:36;;;;;;;74.50;28.80;;;;;;;0.34;93.62;100767.41;105243;1270;59530;-76
2022/12/23 08:50:06;;;;;;;81.30;32.00;;;;;;;0.26;94.40;100766.79;105070;1278;59940;-77
2022/12/23 08:52:35;;;;;;;69.60;27.70;;;;;;;0.23;94.90;100765.34;104887;1268;70837;-77
2022/12/23 08:55:04;;;;;;;75.70;29.10;;;;;;;0.35;94.88;100765.50;105212;1263;72119;-77
2022/12/23 08:57:33;;;;;;;74.90;27.50;;;;;;;0.29;95.50;100765.84;104946;1267;68490;-74
2022/12/23 09:00:03;;;;;;;78.80;30.70;;;;;;;0.41;94.41;100758.30;104971;1270;73824;-73
2022/12/23 09:02:32;;;;;;;71.10;29.20;;;;;;;0.43;94.56;100750.69;105070;1273;60212;-74
2022/12/23 09:05:02;;;;;;;79.60;29.20;;;;;;;0.47;93.87;100750.58;104960;1268;59229;-75
2022/12/23 09:07:31;;;;;;;78.50;29.90;;;;;;;0.50;94.60;100745.87;105080;1264;73305;-76
2022/12/23 09:10:00;;;;;;;77.20;26.50;;;;;;;0.53;93.78;100748.66;105030;1265;71242;-73
2022/12/23 09:12:29;;;;;;;77.00;28.80;;;;;;;0.64;93.19;100744.23;105010;1264;68395;-73
2022/12/23 09:14:58;;;;;;;80.60;29.40;;;;;;;0.68;93.25;100738.78;105704;1264;73533;-76
2022/12/23 09:17:27;;;;;;;69.00;29.10;;;;;;;0.82;92.92;100734.08;105098;1277;61988;-73
2022/12/23 09:19:57;;;;;;;72.20;30.20;;;;;;;0.93;91.39;100733.57;105228;1273;61072;-74
2022/12/23 09:22:27;;;;;;;77.00;30.80;;;;;;;0.75;91.93;100730.01;105109;1262;73517;-75
2022/12/23 09:24:56;;;;;;;78.90;28.10;;;;;;;0.81;92.22;100731.70;105026;1271;73169;-74
2022/12/23 09:27:32;;;;;;;70.70;29.50;;;;;;;0.93;92.51;100731.34;105094;1276;70345;-72
2022/12/23 09:30:02;;;;;;;71.90;27.50;;;;;;;0.96;92.95;100729.51;105086;1263;72669;-71
2022/12/23 09:32:31;;;;;;;73.10;29.00;;;;;;;1.10;93.57;100727.17;105006;1268;60772;-78
2022/12/23 09:35:00;;;;;;;69.70;26.30;;;;;;;1.22;92.89;100724.02;105228;1275;58777;-77
2022/12/23 09:37:29;;;;;;;76.60;29.30;;;;;;;1.29;92.72;100718.13;105220;1278;70261;-75
2022/12/23 09:39:58;;;;;;;79.20;30.10;;;;;;;1.45;92.70;100719.15;105044;1263;69737;-75
2022/12/23 09:42:51;;;;;;;78.10;31.30;;;;;;;1.41;91.04;100721.33;105151;1263;67692;-74
2022/12/23 09:45:36;;;;;;;69.00;28.40;;;;;;;1.53;91.70;100719.55;105073;1267;74078;-73
2022/12/23 09:48:20;;;;;;;72.30;31.20;;;;;;;1.70;91.37;100716.00;105230;1263;59958;-74
2022/12/23 09:50:49;;;;;;;85.00;32.10;;;;;;;1.61;89.35;100712.38;105148;1268;58923;-78
2022/12/23 09:53:26;;;;;;;88.40;32.90;;;;;;;1.67;89.86;100715.62;105158;1266;70789;-79
2022/12/23 09:56:18;;;;;;;84.70;30.90;;;;;;;1.77;90.31;100712.83;105263;1268;70257;-81
2022/12/23 09:59:06;;;;;;;80.80;30.70;;;;;;;1.85;90.66;100702.10;105365;1269;68604;-76
2022/12/23 10:01:47;;;;;;;81.70;31.60;;;;;;;1.96;89.08;100704.59;105371;1271;71056;-76
2022/12/23 10:04:45;;;;;;;75.80;29.40;;;;;;;1.92;89.32;100707.34;105421;1271;61714;-77
2022/12/23 10:07:30;;;;;;;77.10;29.40;;;;;;;1.79;89.27;100701.27;105380;1273;60411;-75
2022/12/23 10:10:16;;;;;;;76.70;29.80;;;;;;;1.85;90.27;100705.19;105435;1265;71856;-83
2022/12/23 10:12:49;;;;;;;81.70;32.40;;;;;;;1.73;89.81;100711.29;105362;1270;69384;-79
2022/12/23 10:15:28;;;;;;;77.70;31.10;;;;;;;1.65;89.55;100711.55;105331;1272;70539;-89
2022/12/23 10:18:05;;;;;;;79.40;30.40;;;;;;;1.61;90.98;100712.90;105284;1274;72206;-79
2022/12/23 10:20:48;;;;;;;77.80;28.80;;;;;;;1.78;90.04;100710.92;105268;1267;60222;-78
2022/12/23 10:23:32;;;;;;;82.00;32.40;;;;;;;1.75;89.61;100710.00;105331;1269;61177;-78
2022/12/23 10:26:14;;;;;;;74.60;30.00;;;;;;;1.59;89.99;100711.08;105318;1264;70686;-79
2022/12/23 10:28:43;;;;;;;72.90;29.40;;;;;;;1.65;90.37;100709.31;105239;1272;70224;-80
2022/12/23 10:31:23;;;;;;;81.90;29.90;;;;;;;1.89;89.58;100702.27;105362;1268;68618;-78
2022/12/23 10:34:33;;;;;;;76.20;29.90;;;;;;;1.93;89.12;100691.30;105360;1266;73110;-73
2022/12/23 10:37:51;;;;;;;88.80;32.60;;;;;;;2.16;88.56;100698.04;105140;1266;59009;-75
2022/12/23 10:40:38;;;;;;;88.60;33.80;;;;;;;2.25;88.22;100697.85;105445;1273;60281;-73
2022/12/23 10:43:45;;;;;;;77.70;31.90;;;;;;;2.34;88.25;100690.46;105544;1274;70891;-73
2022/12/23 10:46:49;;;;;;;80.20;31.00;;;;;;;2.46;86.73;100689.65;105303;1271;62546;-73
2022/12/23 10:50:06;;;;;;;76.60;30.90;;;;;;;2.54;86.35;100689.15;105468;1268;66818;-70
2022/12/23 10:52:41;;;;;;;68.80;29.80;;;;;;;2.68;84.95;100687.23;105425;1274;73824;-71
2022/12/23 10:55:23;;;;;;;77.70;31.20;;;;;;;2.56;85.36;100689.42;105513;1269;59332;-72
2022/12/23 10:58:17;;;;;;;76.30;29.60;;;;;;;2.39;85.44;100684.60;105454;1263;61623;-71
2022/12/23 11:00:55;;;;;;;81.90;31.40;;;;;;;2.33;85.45;100683.80;105485;1273;62325;-72
2022/12/23 11:03:43;;;;;;;80.70;32.00;;;;;;;2.33;85.51;100682.41;105420;1269;70331;-71
2022/12/23 11:06:13;;;;;;;79.60;32.80;;;;;;;1.91;87.57;100684.16;105467;1264;68808;-72
2022/12/23 11:08:42;;;;;;;79.10;32.90;;;;;;;1.79;88.08;100676.52;105390;1265;73916;-72
2022/12/23 11:11:11;;;;;;;73.80;29.80;;;;;;;1.67;88.56;100669.60;105628;1266;60771;-74
2022/12/23 11:13:44;;;;;;;75.60;30.70;;;;;;;1.73;89.25;100665.78;105733;1266;59789;-72
2022/12/23 11:16:24;;;;;;;73.80;28.70;;;;;;;1.64;90.01;100674.70;105547;1268;73633;-73
2022/12/23 11:19:06;;;;;;;79.00;31.30;;;;;;;1.69;90.10;100669.70;105397;1274;70674;-72
2022/12/23 11:21:59;;;;;;;82.00;31.40;;;;;;;1.75;89.77;100673.26;105490;1273;68019;-72
2022/12/23 11:24:36;;;;;;;79.80;30.30;;;;;;;1.70;90.08;100665.18;105466;1263;71868;-73
2022/12/23 11:27:18;;;;;;;79.10;31.70;;;;;;;1.91;89.72;100665.46;105447;1267;60639;-74
2022/12/23 11:29:58;;;;;;;77.70;30.70;;;;;;;2.15;88.84;100661.45;105666;1264;59345;-71
2022/12/23 11:32:31;;;;;;;79.70;31.40;;;;;;;2.47;87.19;100651.24;105413;1263;72186;-70
2022/12/23 11:35:00;;;;;;;86.10;30.90;;;;;;;2.78;85.32;100647.94;105384;1272;70617;-73
2022/12/23 11:37:41;;;;;;;86.00;32.20;;;;;;;2.96;84.47;100652.69;105638;1266;69661;-72
2022/12/23 11:40:24;;;;;;;80.70;31.50;;;;;;;3.02;83.77;100646.79;105562;1263;74169;-73
2022/12/23 11:43:02;;;;;;;79.00;29.90;;;;;;;3.13;82.93;100649.39;105538;1266;59966;-72
2022/12/23 11:45:36;;;;;;;71.20;30.60;;;;;;;3.40;81.52;100651.88;105401;1260;59128;-71
2022/12/23 11:48:25;;;;;;;81.20;31.30;;;;;;;3.51;81.31;100648.63;105406;1261;71570;-71
2022/12/23 11:51:02;;;;;;;73.70;31.60;;;;;;;3.49;80.37;100648.71;105446;1266;71383;-73
2022/12/23 11:53:31;;;;;;;81.30;31.30;;;;;;;3.28;81.10;100657.70;105730;1269;71155;-73
2022/12/23 11:56:13;;;;;;;88.10;34.30;;;;;;;3.43;81.19;100660.17;105573;1272;74192;-75
2022/12/23 11:59:04;;;;;;;77.80;31.70;;;;;;;3.53;80.93;100655.41;105533;1275;61048;-75